Time;durP1;ratioP1;P1;durP2;ratioP2;P2;SDS_P1;SDS_P2;PMS_P1;PMS_P2;Temp;Humidity;BMP_temperature;BMP_pressure;BME280_temperature;BME280_humidity;BME280_pressure;Samples;Min_cycle;Max_cycle;Signal;HPM_P1;HPM_P2
2021/09/15 00:00:42;;;;;;;18.75;14.02;;;;;;;24.87;45.13;101317.56;5135555;27;20031;-71
2021/09/15 00:03:07;;;;;;;17.38;14.07;;;;;;;24.97;44.94;101312.38;5154111;27;20034;-71
2021/09/15 00:05:33;;;;;;;18.95;14.63;;;;;;;24.89;44.82;101314.34;5154117;27;20490;-71
2021/09/15 00:07:59;;;;;;;16.10;13.93;;;;;;;24.87;44.82;101319.56;5135814;27;20372;-71
2021/09/15 00:10:24;;;;;;;17.08;15.27;;;;;;;24.88;44.61;101318.34;5154148;27;20388;-71
2021/09/15 00:12:50;;;;;;;18.85;16.45;;;;;;;24.86;44.94;101315.97;5154002;27;20026;-71
2021/09/15 00:15:16;;;;;;;19.55;16.50;;;;;;;24.91;45.04;101315.53;5154008;27;20484;-71
2021/09/15 00:17:41;;;;;;;19.58;16.42;;;;;;;24.95;44.74;101317.56;5153940;27;20030;-72
2021/09/15 00:20:08;;;;;;;21.80;16.85;;;;;;;24.94;44.91;101316.75;5153784;27;20042;-71
2021/09/15 00:22:34;;;;;;;21.70;16.42;;;;;;;24.92;45.22;101314.34;5153814;27;20101;-71
2021/09/15 00:25:00;;;;;;;20.30;16.77;;;;;;;24.93;45.11;101315.13;5135276;27;20033;-71
2021/09/15 00:27:26;;;;;;;23.35;17.25;;;;;;;24.96;45.19;101322.75;5153869;27;20094;-71
2021/09/15 00:29:52;;;;;;;21.33;17.73;;;;;;;25.02;45.14;101312.78;5153781;27;20109;-71
2021/09/15 00:32:18;;;;;;;21.13;17.08;;;;;;;25.06;45.09;101321.19;5153797;27;20099;-71
2021/09/15 00:34:44;;;;;;;26.58;20.13;;;;;;;25.07;45.28;101325.56;5153774;27;20043;-71
2021/09/15 00:37:10;;;;;;;23.23;17.98;;;;;;;25.12;45.32;101322.41;5153692;27;20029;-71
2021/09/15 00:39:36;;;;;;;29.40;21.00;;;;;;;25.12;45.18;101327.97;5153740;27;20105;-71
2021/09/15 00:42:01;;;;;;;25.40;19.00;;;;;;;25.14;45.44;101329.19;5153634;27;20069;-71
2021/09/15 00:44:27;;;;;;;25.58;19.35;;;;;;;25.15;45.47;101327.19;5153716;27;20531;-71
2021/09/15 00:46:53;;;;;;;24.25;19.45;;;;;;;25.19;45.26;101316.81;5153738;27;20031;-71
2021/09/15 00:49:19;;;;;;;23.60;18.50;;;;;;;25.24;44.96;101321.19;5153617;27;20046;-71
2021/09/15 00:51:44;;;;;;;26.42;19.98;;;;;;;25.24;45.20;101316.41;5155767;27;20030;-71
2021/09/15 00:54:12;;;;;;;26.30;18.52;;;;;;;25.21;45.40;101313.59;5157476;27;20026;-71
2021/09/15 00:56:39;;;;;;;26.17;18.85;;;;;;;25.20;45.17;101318.41;5157381;27;20031;-71
2021/09/15 00:59:05;;;;;;;25.73;19.67;;;;;;;25.20;45.52;101312.00;5157273;27;20023;-71
2021/09/15 01:01:31;;;;;;;28.00;21.58;;;;;;;25.23;45.26;101317.59;5157314;27;20392;-71
2021/09/15 01:03:56;;;;;;;25.77;18.10;;;;;;;25.19;45.58;101308.41;5157251;27;20023;-71
2021/09/15 01:06:22;;;;;;;21.73;17.10;;;;;;;25.16;45.75;101309.19;5138665;27;20023;-71
2021/09/15 01:08:48;;;;;;;22.65;18.70;;;;;;;25.16;45.66;101312.00;5157022;27;20019;-71
2021/09/15 01:11:15;;;;;;;31.92;22.13;;;;;;;25.15;45.68;101313.19;5157136;27;20067;-71
2021/09/15 01:13:41;;;;;;;27.05;20.58;;;;;;;25.22;45.51;101316.00;5157096;27;20038;-71
2021/09/15 01:16:07;;;;;;;23.02;17.65;;;;;;;25.21;45.52;101314.41;5157072;27;20019;-71
2021/09/15 01:18:34;;;;;;;23.92;18.65;;;;;;;25.17;45.74;101303.22;5156973;27;20153;-71
2021/09/15 01:21:00;;;;;;;24.33;18.80;;;;;;;25.21;45.32;101314.41;5156669;27;20123;-71
2021/09/15 01:23:26;;;;;;;32.65;21.27;;;;;;;25.20;45.75;101312.00;5156873;27;20042;-72
2021/09/15 01:25:53;;;;;;;30.58;21.42;;;;;;;25.14;45.79;101311.59;5138310;27;20023;-71
2021/09/15 01:28:19;;;;;;;32.78;23.00;;;;;;;25.21;45.47;101317.19;5156795;27;20027;-71
2021/09/15 01:30:45;;;;;;;27.58;21.95;;;;;;;25.23;45.81;101314.78;5156843;27;20023;-72
2021/09/15 01:33:13;;;;;;;28.38;21.95;;;;;;;25.26;45.73;101324.41;5156914;27;20412;-71
2021/09/15 01:35:40;;;;;;;30.20;23.42;;;;;;;25.34;45.63;101321.19;5156625;27;20429;-80
2021/09/15 01:38:06;;;;;;;26.80;22.27;;;;;;;25.40;45.29;101316.00;5156836;27;20042;-71
2021/09/15 01:40:31;;;;;;;29.45;23.52;;;;;;;25.37;45.31;101320.38;5156882;27;20488;-80
2021/09/15 01:42:57;;;;;;;28.73;22.30;;;;;;;25.33;45.57;101316.81;5156474;27;20485;-72
2021/09/15 01:45:22;;;;;;;30.85;22.67;;;;;;;25.38;45.81;101318.38;5156379;27;20469;-71
2021/09/15 01:47:48;;;;;;;29.30;21.10;;;;;;;25.34;45.76;101318.41;5156350;27;20023;-71
2021/09/15 01:50:14;;;;;;;29.77;21.55;;;;;;;25.32;45.65;101315.22;5156384;27;20022;-71
2021/09/15 01:52:41;;;;;;;26.52;19.85;;;;;;;25.32;45.53;101314.41;5156292;27;20109;-71
2021/09/15 01:55:08;;;;;;;34.13;21.80;;;;;;;25.33;45.49;101316.00;5156277;27;20023;-71
2021/09/15 01:57:33;;;;;;;29.80;21.27;;;;;;;25.31;45.65;101312.78;5156107;27;20110;-73
2021/09/15 01:59:59;;;;;;;27.23;21.60;;;;;;;25.31;45.45;101312.78;5156159;27;20110;-71
2021/09/15 02:02:25;;;;;;;28.17;21.42;;;;;;;25.35;45.61;101317.19;5155411;27;20027;-71
2021/09/15 02:04:51;;;;;;;35.50;24.55;;;;;;;25.32;45.71;101304.03;5156371;27;20034;-71
2021/09/15 02:07:17;;;;;;;29.23;22.05;;;;;;;25.32;45.79;101303.22;5156014;27;20676;-72
2021/09/15 02:09:42;;;;;;;25.75;19.88;;;;;;;25.33;45.89;101304.81;5155924;27;20023;-71
2021/09/15 02:12:08;;;;;;;28.05;20.55;;;;;;;25.35;45.77;101308.81;5155957;27;20030;-71
2021/09/15 02:14:34;;;;;;;31.05;20.98;;;;;;;25.36;45.93;101302.00;5155879;27;20029;-71
2021/09/15 02:17:00;;;;;;;29.95;22.20;;;;;;;25.39;45.48;101304.03;5155807;27;20030;-71
2021/09/15 02:19:25;;;;;;;30.10;21.77;;;;;;;25.40;45.38;101297.22;5155562;27;20491;-72
2021/09/15 02:21:51;;;;;;;31.75;21.88;;;;;;;25.42;45.33;101292.03;5155458;27;20022;-72
2021/09/15 02:24:17;;;;;;;28.42;21.60;;;;;;;25.41;45.33;101289.63;5155722;27;20027;-71
2021/09/15 02:26:43;;;;;;;26.88;22.13;;;;;;;25.36;45.70;101290.81;5155872;27;20045;-71
2021/09/15 02:29:09;;;;;;;31.58;21.92;;;;;;;25.37;45.50;101283.22;5137047;27;20019;-71
2021/09/15 02:31:34;;;;;;;32.67;21.75;;;;;;;25.44;45.48;101289.59;5155850;27;20457;-72
2021/09/15 02:34:00;;;;;;;29.23;20.60;;;;;;;25.45;45.18;101291.22;5155489;27;20053;-71
2021/09/15 02:36:26;;;;;;;31.90;23.00;;;;;;;25.38;45.50;101290.41;5155726;27;20025;-71
2021/09/15 02:38:52;;;;;;;28.20;22.67;;;;;;;25.37;45.92;101289.63;5155402;27;20019;-71
2021/09/15 02:41:18;;;;;;;31.45;23.67;;;;;;;25.37;45.93;101292.41;5155474;27;20145;-71
2021/09/15 02:43:44;;;;;;;36.40;26.75;;;;;;;25.42;45.51;101289.22;5136764;27;20026;-71
2021/09/15 02:46:09;;;;;;;37.13;25.35;;;;;;;25.45;45.76;101290.41;5155209;27;20054;-71
2021/09/15 02:48:35;;;;;;;34.50;24.63;;;;;;;25.48;45.79;101286.81;5136724;27;20033;-72
2021/09/15 02:51:01;;;;;;;33.08;23.63;;;;;;;25.54;45.32;101288.00;5155236;27;20600;-72
2021/09/15 02:53:28;;;;;;;33.90;24.48;;;;;;;25.67;45.29;101288.38;5155066;27;20098;-71
2021/09/15 02:55:53;;;;;;;36.30;24.67;;;;;;;25.54;45.67;101288.00;5155048;27;20035;-71
2021/09/15 02:58:19;;;;;;;35.40;24.58;;;;;;;25.49;45.73;101288.41;5154981;27;20046;-71
2021/09/15 03:00:45;;;;;;;35.22;24.52;;;;;;;25.46;45.89;101289.19;5154858;27;20023;-72
2021/09/15 03:03:10;;;;;;;36.10;25.80;;;;;;;25.46;45.93;101281.59;5151401;27;20019;-72
2021/09/15 03:05:36;;;;;;;31.33;23.70;;;;;;;25.49;45.61;101290.41;5131731;27;20049;-71
2021/09/15 03:08:02;;;;;;;34.22;25.10;;;;;;;25.52;45.84;101284.00;5154860;27;20035;-71
2021/09/15 03:10:28;;;;;;;33.50;23.95;;;;;;;25.57;45.78;101286.41;5154758;27;20039;-71
2021/09/15 03:12:54;;;;;;;33.22;25.02;;;;;;;25.53;45.48;101278.00;5154662;27;20038;-78
2021/09/15 03:15:23;;;;;;;37.78;25.27;;;;;;;25.49;45.77;101279.22;5153687;27;20038;-71
2021/09/15 03:17:49;;;;;;;33.80;22.85;;;;;;;25.49;45.77;101284.81;5136085;27;20034;-71
2021/09/15 03:20:15;;;;;;;36.47;24.45;;;;;;;25.47;45.55;101285.22;5154345;27;20401;-71
2021/09/15 03:22:41;;;;;;;33.85;23.38;;;;;;;25.44;45.85;101283.22;5154515;27;20046;-72
2021/09/15 03:25:08;;;;;;;36.55;25.58;;;;;;;25.47;45.57;101274.03;5154610;27;20474;-71
2021/09/15 03:27:34;;;;;;;35.78;26.33;;;;;;;25.50;45.57;101266.84;5154406;27;20480;-72
2021/09/15 03:30:00;;;;;;;41.50;28.02;;;;;;;25.52;45.48;101279.22;5154423;27;20026;-71
2021/09/15 03:32:26;;;;;;;39.67;27.85;;;;;;;25.57;45.60;101270.41;5154498;27;20022;-71
2021/09/15 03:34:51;;;;;;;40.17;27.88;;;;;;;25.69;45.27;101267.19;5154444;27;20015;-72
2021/09/15 03:37:17;;;;;;;43.35;28.00;;;;;;;25.60;45.67;101260.41;5154332;27;20027;-71
2021/09/15 03:39:42;;;;;;;40.30;28.20;;;;;;;25.60;45.64;101264.00;5154328;27;20101;-72
2021/09/15 03:42:08;;;;;;;42.65;28.25;;;;;;;25.60;45.85;101258.41;5154363;27;20033;-72
2021/09/15 03:44:34;;;;;;;43.45;28.20;;;;;;;25.61;45.66;101259.19;5154315;27;20058;-71
2021/09/15 03:47:00;;;;;;;43.97;29.48;;;;;;;25.46;45.89;101255.63;5154310;27;20434;-71
2021/09/15 03:49:26;;;;;;;43.00;29.25;;;;;;;25.44;46.00;101260.84;5154218;27;20022;-71
2021/09/15 03:51:52;;;;;;;44.17;29.65;;;;;;;25.48;45.95;101263.66;5154216;27;20018;-71
2021/09/15 03:54:18;;;;;;;43.75;28.42;;;;;;;25.45;45.89;101265.22;5154216;27;20159;-71
2021/09/15 03:56:43;;;;;;;43.15;27.15;;;;;;;25.41;46.10;101270.84;5154156;27;20027;-71
2021/09/15 03:59:09;;;;;;;45.75;27.73;;;;;;;25.46;45.94;101272.41;5154187;27;20026;-71
2021/09/15 04:01:35;;;;;;;41.45;26.73;;;;;;;25.45;46.23;101276.41;5154024;27;20034;-71
2021/09/15 04:04:00;;;;;;;48.05;30.77;;;;;;;25.44;45.92;101270.03;5154309;27;20019;-71
2021/09/15 04:06:26;;;;;;;41.50;26.50;;;;;;;25.40;46.41;101277.66;5154004;27;20465;-72
2021/09/15 04:08:52;;;;;;;37.47;26.63;;;;;;;25.40;46.44;101274.84;5154016;27;20022;-71
2021/09/15 04:11:18;;;;;;;41.85;26.67;;;;;;;25.39;46.38;101276.06;5154078;27;20033;-71
2021/09/15 04:13:44;;;;;;;46.63;28.77;;;;;;;25.41;46.18;101276.44;5153906;27;20019;-71
2021/09/15 04:16:10;;;;;;;48.50;30.55;;;;;;;25.41;46.43;101272.84;5153909;27;20072;-71
2021/09/15 04:18:35;;;;;;;50.22;30.13;;;;;;;25.36;46.44;101276.03;5153950;27;20027;-71
2021/09/15 04:21:01;;;;;;;46.20;29.65;;;;;;;25.33;46.23;101274.84;5153640;27;20051;-73
2021/09/15 04:23:42;;;;;;;42.03;27.58;;;;;;;25.32;46.47;101276.06;5153981;27;20026;-72
2021/09/15 04:31:36;;;;;;;48.08;28.08;;;;;;;25.25;46.55;101264.88;5158051;27;20029;-71
2021/09/15 04:34:02;;;;;;;46.58;30.30;;;;;;;25.22;46.83;101270.47;5158134;27;20018;-71
2021/09/15 04:36:28;;;;;;;48.25;30.55;;;;;;;25.27;46.74;101268.06;5157818;27;20500;-71
2021/09/15 04:38:53;;;;;;;47.55;30.63;;;;;;;25.26;46.57;101266.47;5157748;27;20022;-71
2021/09/15 04:41:19;;;;;;;48.30;29.02;;;;;;;25.23;46.71;101275.63;5138894;27;20027;-71
2021/09/15 04:43:45;;;;;;;50.70;32.10;;;;;;;25.26;46.67;101274.84;5139113;27;20037;-72
2021/09/15 04:46:11;;;;;;;48.95;30.92;;;;;;;25.26;46.57;101276.84;5157653;27;20018;-71
2021/09/15 04:48:38;;;;;;;52.78;30.23;;;;;;;25.13;47.25;101279.25;5157568;27;20019;-71
2021/09/15 04:51:05;;;;;;;45.35;30.23;;;;;;;25.20;46.82;101284.84;5157791;27;20068;-71
2021/09/15 04:53:31;;;;;;;48.53;31.60;;;;;;;25.26;46.70;101276.84;5157484;27;20018;-71
2021/09/15 04:55:57;;;;;;;42.83;27.55;;;;;;;25.19;47.03;101280.44;5157441;27;20037;-71
2021/09/15 04:58:22;;;;;;;45.20;29.85;;;;;;;25.16;46.83;101278.44;5157396;27;20027;-71
2021/09/15 05:00:48;;;;;;;46.00;30.08;;;;;;;25.08;47.49;101276.84;5157241;27;20053;-72
2021/09/15 05:03:14;;;;;;;47.97;29.20;;;;;;;25.02;47.55;101279.22;5157329;27;20022;-81
2021/09/15 05:05:39;;;;;;;41.97;26.42;;;;;;;25.01;47.37;101274.81;5157275;27;20491;-71
2021/09/15 05:08:05;;;;;;;51.80;30.08;;;;;;;25.02;47.18;101278.44;5157229;27;20077;-71
2021/09/15 05:10:31;;;;;;;42.00;27.42;;;;;;;25.11;47.01;101281.66;5157182;27;20026;-72
2021/09/15 05:12:57;;;;;;;47.42;29.77;;;;;;;25.00;46.88;101286.41;5157122;27;20499;-71
2021/09/15 05:15:25;;;;;;;51.78;29.67;;;;;;;25.02;47.08;101284.03;5157061;27;20062;-71
2021/09/15 05:17:51;;;;;;;50.78;30.13;;;;;;;24.97;47.12;101281.63;5157088;27;20101;-71
2021/09/15 05:20:18;;;;;;;51.38;30.42;;;;;;;25.01;46.96;101285.19;5156694;27;20042;-71
2021/09/15 05:22:48;;;;;;;50.22;31.27;;;;;;;25.01;47.10;101285.19;5156826;27;20030;-72
2021/09/15 05:25:15;;;;;;;48.22;31.38;;;;;;;24.99;46.88;101290.41;5156870;27;20023;-71
2021/09/15 05:27:41;;;;;;;52.28;28.38;;;;;;;24.95;46.66;101284.81;5156869;27;20030;-72
2021/09/15 05:30:08;;;;;;;50.35;28.83;;;;;;;24.94;46.60;101286.03;5156686;27;20019;-71
2021/09/15 05:32:34;;;;;;;47.45;28.23;;;;;;;24.80;46.66;101289.59;5156760;27;20023;-71
2021/09/15 05:35:00;;;;;;;48.53;28.70;;;;;;;24.68;47.17;101289.16;5156628;27;20019;-72
2021/09/15 05:37:26;;;;;;;46.42;26.25;;;;;;;24.77;46.46;101290.38;5155697;27;20023;-73
2021/09/15 05:39:51;;;;;;;52.00;29.83;;;;;;;24.80;46.96;101294.38;5156860;27;20605;-71
2021/09/15 05:42:17;;;;;;;55.05;30.65;;;;;;;24.75;47.01;101292.75;5156761;27;20541;-72
2021/09/15 05:44:43;;;;;;;58.95;32.15;;;;;;;24.79;47.00;101288.00;5156506;27;20541;-71
2021/09/15 05:47:09;;;;;;;61.80;31.88;;;;;;;24.73;46.92;101295.16;5156489;27;20039;-71
2021/09/15 05:49:34;;;;;;;58.58;32.53;;;;;;;24.72;47.37;101293.56;5156499;27;20064;-81
2021/09/15 05:52:00;;;;;;;59.83;34.28;;;;;;;24.77;47.21;101298.75;5156329;27;20380;-73
2021/09/15 05:54:25;;;;;;;48.70;29.83;;;;;;;24.74;47.42;101293.16;5138027;27;20029;-72
2021/09/15 05:56:51;;;;;;;54.47;32.00;;;;;;;24.75;47.22;101292.75;5156265;27;20477;-71
2021/09/15 05:59:17;;;;;;;56.35;32.10;;;;;;;24.72;47.60;101296.38;5156228;27;20019;-71
2021/09/15 06:01:42;;;;;;;61.38;34.33;;;;;;;24.75;47.49;101292.75;5137441;27;20037;-71
2021/09/15 06:04:08;;;;;;;56.10;31.77;;;;;;;24.74;47.33;101293.97;5156360;27;20054;-71
2021/09/15 06:06:34;;;;;;;58.63;31.92;;;;;;;24.65;47.85;101299.16;5156034;27;20025;-71
2021/09/15 06:08:59;;;;;;;54.70;32.53;;;;;;;24.73;47.55;101299.97;5155988;27;20027;-71
2021/09/15 06:11:26;;;;;;;51.50;31.02;;;;;;;24.73;47.29;101300.75;5155939;27;20061;-71
2021/09/15 06:13:54;;;;;;;46.70;30.85;;;;;;;24.74;47.84;101298.75;5136982;27;20030;-71
2021/09/15 06:16:20;;;;;;;54.47;30.33;;;;;;;24.72;47.50;101298.38;5155983;27;20113;-73
2021/09/15 06:18:45;;;;;;;54.80;32.50;;;;;;;24.70;48.00;101293.16;5155832;27;20443;-69
2021/09/15 06:21:11;;;;;;;64.18;33.25;;;;;;;24.70;47.96;101298.75;5154468;27;20396;-73
2021/09/15 06:23:37;;;;;;;56.17;31.05;;;;;;;24.74;47.65;101298.75;5139317;27;20503;-70
2021/09/15 06:26:03;;;;;;;50.55;29.88;;;;;;;24.77;47.88;101293.16;5135233;27;20362;-69
2021/09/15 06:28:29;;;;;;;57.83;32.40;;;;;;;24.80;47.87;101294.38;5134849;27;20023;-70
2021/09/15 06:30:55;;;;;;;62.50;34.53;;;;;;;24.76;47.66;101290.78;5137239;27;20027;-73
2021/09/15 06:33:21;;;;;;;59.33;33.75;;;;;;;24.81;47.65;101301.56;5131056;27;20131;-71
2021/09/15 06:35:47;;;;;;;57.55;33.28;;;;;;;24.79;47.89;101299.19;5117666;27;20113;-71
2021/09/15 06:38:13;;;;;;;61.63;33.90;;;;;;;24.75;47.77;101303.94;5150643;27;20050;-70
2021/09/15 06:40:39;;;;;;;58.42;32.45;;;;;;;24.70;48.19;101301.53;5134901;27;20485;-71
2021/09/15 06:43:06;;;;;;;59.65;33.67;;;;;;;24.70;48.28;101307.13;5135209;27;20116;-72
2021/09/15 06:45:32;;;;;;;60.65;32.20;;;;;;;24.76;48.12;101310.34;5132980;27;20049;-73
2021/09/15 06:47:58;;;;;;;60.47;34.03;;;;;;;24.79;48.48;101310.34;5134474;27;20481;-73
2021/09/15 06:50:23;;;;;;;55.10;31.85;;;;;;;24.87;48.28;101314.75;5132971;27;20030;-73
2021/09/15 06:52:49;;;;;;;53.58;30.88;;;;;;;24.96;48.22;101307.97;5117445;27;20027;-73
2021/09/15 06:55:14;;;;;;;59.05;34.33;;;;;;;24.89;48.15;101306.75;5134326;27;20023;-72
2021/09/15 06:57:40;;;;;;;51.55;29.85;;;;;;;24.92;48.56;101319.94;5134255;27;20027;-73
2021/09/15 07:00:07;;;;;;;58.05;32.25;;;;;;;24.81;48.60;101321.94;5134034;27;20023;-73
2021/09/15 07:02:33;;;;;;;55.63;32.90;;;;;;;24.83;48.82;101322.31;5133938;27;20027;-73
2021/09/15 07:04:59;;;;;;;58.22;31.05;;;;;;;24.94;48.74;101333.53;5134081;27;20019;-73
2021/09/15 07:07:25;;;;;;;53.38;30.95;;;;;;;24.99;48.66;101340.72;5144588;27;20027;-73
2021/09/15 07:09:50;;;;;;;53.58;30.48;;;;;;;24.94;48.52;101339.13;5136307;27;20023;-77
2021/09/15 07:12:16;;;;;;;56.40;31.23;;;;;;;25.04;48.49;101338.38;5154765;27;20101;-74
2021/09/15 07:14:42;;;;;;;55.75;30.73;;;;;;;25.06;48.51;101340.75;5154657;27;20022;-73
2021/09/15 07:17:07;;;;;;;52.53;29.25;;;;;;;24.99;48.43;101344.31;5138209;27;20037;-74
2021/09/15 07:19:33;;;;;;;59.33;31.63;;;;;;;25.11;48.51;101343.16;5133261;27;20037;-74
2021/09/15 07:21:59;;;;;;;61.72;31.77;;;;;;;25.11;48.25;101338.38;5145341;27;20085;-74
2021/09/15 07:24:25;;;;;;;58.95;30.00;;;;;;;25.12;48.58;101344.75;5172358;27;20050;-73
2021/09/15 07:26:51;;;;;;;52.13;27.25;;;;;;;25.09;48.73;101337.16;5160948;27;20384;-74
2021/09/15 07:29:17;;;;;;;47.50;27.85;;;;;;;25.08;48.60;101346.75;5154505;27;20034;-73
2021/09/15 07:31:43;;;;;;;47.33;27.42;;;;;;;25.15;48.62;101338.38;5154429;27;20027;-73
2021/09/15 07:34:09;;;;;;;54.90;28.70;;;;;;;25.29;47.94;101341.16;5154398;27;20027;-74
2021/09/15 07:36:35;;;;;;;47.88;26.15;;;;;;;25.20;48.09;101334.38;5154358;27;20022;-73
2021/09/15 07:39:02;;;;;;;50.88;28.17;;;;;;;25.26;48.30;101341.19;5154243;27;20019;-78
2021/09/15 07:41:27;;;;;;;49.75;28.48;;;;;;;25.31;48.11;101337.97;5154181;27;20105;-74
2021/09/15 07:43:53;;;;;;;60.38;29.90;;;;;;;25.38;48.02;101340.75;5154243;27;20591;-78
2021/09/15 07:46:22;;;;;;;49.67;28.92;;;;;;;25.54;47.57;101341.16;5154191;27;20092;-74
2021/09/15 07:48:48;;;;;;;48.57;29.47;;;;;;;25.55;47.70;101339.97;5154131;27;20384;-79
2021/09/15 07:51:15;;;;;;;50.60;29.35;;;;;;;25.53;47.67;101336.75;5153698;27;20430;-74
2021/09/15 07:53:41;;;;;;;47.25;28.52;;;;;;;25.63;47.73;101343.56;5147376;27;20027;-74
2021/09/15 07:56:07;;;;;;;50.25;30.42;;;;;;;25.62;47.82;101348.38;5154000;27;20506;-78
2021/09/15 07:58:32;;;;;;;49.70;30.65;;;;;;;25.66;47.74;101348.34;5153824;27;20037;-77
2021/09/15 08:00:58;;;;;;;56.05;30.33;;;;;;;25.69;47.72;101344.72;5154489;27;20019;-74
2021/09/15 08:03:23;;;;;;;64.22;29.80;;;;;;;25.70;47.46;101351.94;5157995;27;20105;-72
2021/09/15 08:05:49;;;;;;;60.90;30.42;;;;;;;25.82;47.23;101359.16;5157884;27;20022;-72
2021/09/15 08:08:14;;;;;;;39.25;27.27;;;;;;;25.82;47.61;101364.75;5157575;27;20039;-74
2021/09/15 08:10:40;;;;;;;46.28;29.20;;;;;;;25.90;47.10;101361.53;5157863;27;20019;-73
2021/09/15 08:13:06;;;;;;;46.30;27.02;;;;;;;25.84;47.10;101367.94;5158088;27;20042;-73
2021/09/15 08:15:32;;;;;;;48.78;26.48;;;;;;;25.88;47.38;101363.94;5158211;27;20146;-74
2021/09/15 08:17:58;;;;;;;42.33;26.17;;;;;;;25.91;47.51;101357.53;5158061;27;20027;-73
2021/09/15 08:20:24;;;;;;;44.70;28.05;;;;;;;25.86;47.50;101363.53;5157973;27;20102;-76
2021/09/15 08:22:50;;;;;;;58.65;30.83;;;;;;;25.86;47.65;101374.75;5152713;27;20108;-77
2021/09/15 08:25:15;;;;;;;47.55;27.05;;;;;;;26.05;47.29;101384.69;5136908;27;20027;-73
2021/09/15 08:27:41;;;;;;;43.78;28.00;;;;;;;26.08;47.37;101369.09;5137147;27;20054;-73
2021/09/15 08:30:08;;;;;;;53.42;29.15;;;;;;;26.03;47.37;101370.31;5137110;27;20054;-74
2021/09/15 08:32:34;;;;;;;37.95;27.38;;;;;;;26.13;47.15;101368.66;5136868;27;20020;-76
2021/09/15 08:34:59;;;;;;;40.22;27.25;;;;;;;26.21;46.87;101370.25;5146542;27;20532;-73
2021/09/15 08:37:25;;;;;;;40.72;28.05;;;;;;;26.24;47.02;101370.25;5159856;27;20026;-77
2021/09/15 08:39:50;;;;;;;61.85;30.77;;;;;;;26.13;47.28;101374.28;5160767;27;20030;-74
2021/09/15 08:42:16;;;;;;;45.00;28.55;;;;;;;26.23;47.00;101374.25;5157064;27;20484;-73
2021/09/15 08:44:42;;;;;;;38.97;28.83;;;;;;;26.21;47.16;101373.84;5157370;27;20018;-74
2021/09/15 08:47:09;;;;;;;49.15;28.35;;;;;;;26.31;46.82;101386.25;5157589;27;20457;-74
2021/09/15 08:49:36;;;;;;;35.63;26.52;;;;;;;26.36;46.89;101390.59;5157480;27;20032;-73
2021/09/15 08:52:01;;;;;;;50.13;28.65;;;;;;;26.42;46.42;101381.41;5138837;27;20551;-77
2021/09/15 08:54:27;;;;;;;49.00;30.38;;;;;;;26.47;46.47;101383.00;5176634;27;20028;-74
2021/09/15 08:56:53;;;;;;;40.92;27.85;;;;;;;26.51;46.37;101384.56;5173141;27;20413;-78
2021/09/15 08:59:18;;;;;;;35.22;25.52;;;;;;;26.50;46.53;101382.97;5175142;27;20061;-73
2021/09/15 09:01:45;;;;;;;36.75;25.70;;;;;;;26.66;46.38;101378.91;5177210;27;20029;-74
2021/09/15 09:04:15;;;;;;;40.33;26.67;;;;;;;26.67;46.29;101374.88;5178243;27;20018;-73
2021/09/15 09:06:41;;;;;;;31.63;24.65;;;;;;;26.66;46.38;101385.31;5178138;27;20022;-72
2021/09/15 09:09:07;;;;;;;32.67;24.17;;;;;;;26.77;46.10;101385.25;5177842;27;20505;-74
2021/09/15 09:11:34;;;;;;;109.95;34.13;;;;;;;26.78;45.97;101390.44;5178103;27;20152;-76
2021/09/15 09:14:01;;;;;;;50.17;28.27;;;;;;;26.82;46.03;101398.84;5177788;27;20358;-78
2021/09/15 09:16:47;;;;;;;41.22;27.92;;;;;;;26.64;46.33;101403.75;5178095;27;20022;-73
2021/09/15 09:19:16;;;;;;;47.63;29.98;;;;;;;26.75;46.22;101393.25;5161257;27;20448;-73
2021/09/15 09:21:49;;;;;;;38.50;28.25;;;;;;;26.87;45.75;101395.59;5156200;27;20034;-75
2021/09/15 09:24:19;;;;;;;43.63;27.42;;;;;;;26.94;45.74;101395.56;5152679;27;20034;-77
2021/09/15 09:26:55;;;;;;;36.83;25.52;;;;;;;27.03;45.56;101397.91;5153704;27;20029;-78
2021/09/15 09:29:28;;;;;;;41.28;27.40;;;;;;;27.06;45.49;101397.94;5156327;27;20022;-74
2021/09/15 09:31:58;;;;;;;39.72;27.95;;;;;;;27.12;45.40;101395.47;5156608;27;20511;-73
2021/09/15 09:34:25;;;;;;;43.70;28.08;;;;;;;27.13;45.45;101396.28;5155332;27;20026;-73
2021/09/15 09:37:04;;;;;;;36.67;26.40;;;;;;;27.14;45.46;101398.69;5135856;27;20029;-74
2021/09/15 09:39:39;;;;;;;35.75;26.73;;;;;;;27.17;45.36;101397.84;5135776;27;20031;-73
2021/09/15 09:42:24;;;;;;;35.53;26.08;;;;;;;27.25;45.32;101398.59;5135658;27;20493;-73
2021/09/15 09:45:11;;;;;;;31.70;24.83;;;;;;;27.33;45.09;101394.53;5135728;27;20469;-74
2021/09/15 09:47:38;;;;;;;30.92;24.33;;;;;;;27.36;44.94;101399.34;5135201;27;20039;-73
2021/09/15 09:50:13;;;;;;;33.97;23.85;;;;;;;27.43;45.12;101393.66;5135531;27;20061;-73
2021/09/15 09:53:02;;;;;;;27.98;22.02;;;;;;;27.36;44.94;101388.91;5143019;27;20025;-73
2021/09/15 09:55:33;;;;;;;68.97;24.45;;;;;;;27.49;45.20;101396.81;5157916;27;20547;-73
2021/09/15 09:57:58;;;;;;;46.15;22.73;;;;;;;27.59;44.95;101390.34;5177148;27;20019;-73
2021/09/15 10:00:25;;;;;;;28.13;18.88;;;;;;;27.72;44.58;101393.44;5176868;27;20468;-77
2021/09/15 10:02:51;;;;;;;25.52;19.58;;;;;;;27.93;44.39;101393.22;5176822;27;20071;-77
2021/09/15 10:05:19;;;;;;;32.35;18.10;;;;;;;27.94;44.68;101392.00;5163082;27;20018;-74
2021/09/15 10:07:46;;;;;;;48.38;20.73;;;;;;;28.01;44.16;101399.56;5155806;27;20058;-76
2021/09/15 10:10:15;;;;;;;23.05;16.95;;;;;;;28.12;44.09;101395.44;5155443;27;20465;-74
2021/09/15 10:12:40;;;;;;;27.77;16.70;;;;;;;28.25;43.78;101394.91;5155806;27;20027;-75
2021/09/15 10:15:08;;;;;;;24.63;15.55;;;;;;;28.27;43.92;101398.09;5137061;27;20030;-74
2021/09/15 10:17:37;;;;;;;34.63;17.42;;;;;;;28.37;43.59;101411.25;5136903;27;20170;-73
2021/09/15 10:20:04;;;;;;;23.98;16.70;;;;;;;28.17;43.64;101409.03;5136821;27;20051;-74
2021/09/15 10:22:32;;;;;;;22.05;17.23;;;;;;;28.18;43.54;101409.81;5136527;27;20156;-75
2021/09/15 10:24:59;;;;;;;34.40;18.10;;;;;;;27.99;43.83;101411.22;5155013;27;20022;-79
2021/09/15 10:27:30;;;;;;;28.42;17.65;;;;;;;28.19;43.29;101412.22;5137476;27;20097;-78
2021/09/15 10:30:08;;;;;;;31.80;20.17;;;;;;;28.22;43.25;101409.78;5134862;27;20095;-74
2021/09/15 10:32:36;;;;;;;20.42;16.25;;;;;;;27.94;43.05;101417.28;5116389;27;20154;-76
2021/09/15 10:35:05;;;;;;;27.05;15.07;;;;;;;28.09;42.76;101412.31;5139815;27;20097;-73
2021/09/15 10:37:30;;;;;;;23.17;15.57;;;;;;;28.26;42.83;101407.72;5155340;27;20018;-74
2021/09/15 10:39:57;;;;;;;17.50;12.93;;;;;;;28.47;42.54;101419.53;5155125;27;20472;-82
2021/09/15 10:42:38;;;;;;;17.30;15.38;;;;;;;28.32;42.77;101406.88;5155147;27;20031;-73
2021/09/15 10:45:10;;;;;;;22.30;14.02;;;;;;;28.41;42.70;101409.19;5155022;27;20023;-74
2021/09/15 10:47:48;;;;;;;19.92;13.63;;;;;;;28.39;42.47;101408.81;5136247;27;20026;-79
2021/09/15 10:50:37;;;;;;;16.98;12.60;;;;;;;28.30;42.60;101400.88;5155020;27;20045;-78
2021/09/15 10:53:10;;;;;;;17.35;11.43;;;;;;;28.34;42.43;101401.66;5147288;27;20023;-76
2021/09/15 10:55:57;;;;;;;18.65;10.98;;;;;;;28.32;42.53;101403.28;5133934;27;20028;-78
2021/09/15 10:58:22;;;;;;;24.50;11.82;;;;;;;28.48;42.28;101401.47;5115775;27;20045;-73
2021/09/15 11:00:56;;;;;;;12.40;9.68;;;;;;;28.42;42.34;101400.34;5134171;27;20019;-77
2021/09/15 11:03:33;;;;;;;14.90;9.63;;;;;;;28.31;42.17;101402.47;5133852;27;20111;-74
2021/09/15 11:06:07;;;;;;;17.65;10.60;;;;;;;28.33;42.29;101404.88;5133973;27;20510;-74
2021/09/15 11:08:34;;;;;;;14.82;10.30;;;;;;;28.09;42.42;101401.09;5115656;27;20039;-75
2021/09/15 11:11:02;;;;;;;14.13;9.85;;;;;;;28.04;42.53;101399.56;5133911;27;20389;-74
2021/09/15 11:13:27;;;;;;;13.38;8.63;;;;;;;28.29;42.10;101404.88;5133891;27;20019;-73